Pagrindinis puslapis
METAR-TAF:

METAR-TAF

Oro uostai :

Latakija, Sirija

platuma: 35-32N, ilguma: 035-46E, Aukštis: 7 m

Dabartinis oras

Ataskaita buvo paskelbta 29 minutes, ne 18:00 UTC
Vėjas 6 kt iš Rytų/Pietryčių
Temperatūra 24°C
Drėgmė 74%
Slėgis 1009 hPa
Matomumas 10 km arba daugiau
Mažai debesys ne aukštis 2600 ft
Išsisklaidę debesys ne aukštis 3000 ft

METAR: OSLK 151800Z 12006KT 9999 FEW026 SCT030 24/19 Q1009

Laikas: 21:29 (18:29 UTC)

Prognozė

Prognozė galioja nuo 15 metu 18 UTC su 16 metu 18 UTC
Vėjas 10 kt iš Vakarų/Pietvakarių
Matomumas 10 km arba daugiau
Mažai debesys ne aukštis 2500 ft
Išsisklaidę debesys ne aukštis 3000 ft
Laikinai
nuo 16 metu 04 UTC su 16 metu 14 UTC
Vėjas 10 kt iš Pietų/Pietvakarių su gūsio iki 25 kt
Matomumas: 4000 m
Mažai debesys ne aukštis 2600 ft
Išsisklaidę debesys ne aukštis 3000 ft
Su prošvaistėmis ne aukštis 10000 ft
lietus

TAF: OSLK 1518/1618 24010KT 9999 FEW025 TCU SCT030 TEMPO 1604/1614 20010G25KT 4000 RA FEW026 CB SCT030 BKN100

Orai ataskaitas ir orų prognozės (METAR, TAF).

turimą stotys yra geltonos ir raudonos taškus žemėlapyje.

Perkelti pele per norėdami pamatyti stoties vardą.

Tada spustelėkite, norėdami matyti oro stebėjimo ir prognozės.

Norėdami pakeisti žemėlapį: spustelėkite ant žalios mygtukų su juodo kryžiaus žemyn,; žalią mygtuką su brūkšneliu, jei norite nutolinti; arba žalių rodyklių gretimoms žemėlapius.


METAR-TAF: